Terminal Aerodrome Forecast
Issued by NWS

Home | Current Version | Previous Version | Text Only | Print | Product List | Glossary On
Versions: 1 2 3 4 5 6 7 8 9 10 11
212
FTUS42 KTBW 271129
TAFPIE
TAF
KPIE 271129Z 2712/2812 16009KT P6SM FEW250
     FM271700 19013G18KT P6SM FEW250
     FM280000 22008KT P6SM FEW250
     FM280500 18005KT P6SM SCT250
     FM281100 14005KT P6SM SCT250=

USA.gov is the U.S. government's official web portal to all federal, state and local government web resources and services.